Accueil
METAR-TAF:

METAR-TAF

Aéroports :

Paris-Charles De Gaulle, France

Aéroport de Paris-Charles-de-Gaulle

latitude: 49-01N, longitude: 002-32E, altitude: 118 m

Observation

Le bulletin a été fait il y a 39 minutes, à 12:30 UTC
Vent 7 kt de est/sud-est, variant entre nord-est et sud/sud-est
Température 16°C
Humidité 51%
Pression 1020 hPa
Visibilité 10 km ou plus
pas de nuages en-dessous de 1500 mètres et pas de cumulonimbus.

METAR: LFPG 261230Z 12007KT 050V160 CAVOK 16/06 Q1020 NOSIG

Heure: 15:09 (13:09 UTC)

Prévision

Le bulletin a été fait il y a 2 heures et 9 minutes, à 11:00 UTC
Prévision valable du 26 à 12 UTC au 27 à 18 UTC
Vent 10 kt de est
Visibilité 10 km ou plus
pas de nuages en-dessous de 1500 mètres et pas de cumulonimbus.

TAF: LFPG 261100Z 2612/2718 09010KT CAVOK TX19/2615Z TN06/2705Z

Observations et prévisions météorologiques de plus de 4000 aéroports (messages METAR et TAF).

Les stations disponibles sont représentées par des disques jaunes et rouges sur la carte.

Passer la souris dessus pour voir le nom de la station.

Cliquer dessus pour voir les observations et prévisions météorologiques.

Pour changer de carte: cliquez sur les boutons verts avec une croix noire pour zoomer, sur le bouton vert avec un tiret pour effectuer un zoom arrière, ou sur les flèches vertes pour les cartes adjacentes.


METAR-TAF: